Terminal Aerodrome Forecast
Issued by NWS San Angelo, TX

Home | Current Version | Previous Version | Text Only | Print | Product List | Glossary On
Versions: 1 2 3 4 5 6 7 8 9 10 11 12 13 14 15 16 17 18 19 20 21 22 23 24 25
300
FTUS44 KSJT 231124
TAFABI
TAF
KABI 231124Z 2312/2412 14005KT 1SM -DZ BR BKN003
      TEMPO 2312/2315 1/2SM FG
     FM231600 09006KT 3SM BR VCSH OVC004
     FM231900 11006KT 6SM BR VCSH BKN007
     FM240300 16007KT 4SM BR OVC005=

USA.gov is the U.S. government's official web portal to all federal, state and local government web resources and services.